Time,TemperatureF,DewpointF,PressureIn,WindDirection,WindDirectionDegrees,WindSpeedMPH,WindSpeedGustMPH,Humidity,HourlyPrecipIn,Conditions,Clouds,dailyrainin,SoftwareType,DateUTC
2013-04-02 00:57:00,27.1,15.5,29.48,WNW,293,0.0,0.0,61,0.00,,,0.00,WUHU21623XXSP,2013-04-02 05:57:00,
2013-04-02 01:57:00,25.9,15.1,29.49,WNW,293,0.0,0.0,63,0.00,,,0.00,WUHU21623XXSP,2013-04-02 06:57:00,
2013-04-02 02:57:00,24.6,14.6,29.49,WNW,293,0.0,0.0,65,0.00,,,0.00,WUHU21623XXSP,2013-04-02 07:57:00,
2013-04-02 03:57:00,23.9,14.2,29.48,WNW,293,0.0,0.0,66,0.00,,,0.00,WUHU21623XXSP,2013-04-02 08:57:00,
2013-04-02 04:57:00,22.6,13.3,29.49,WNW,293,0.0,0.0,67,0.00,,,0.00,WUHU21623XXSP,2013-04-02 09:57:00,
2013-04-02 06:01:00,22.3,13.6,29.50,WNW,292,0.0,0.0,69,0.00,,,0.00,WUHU21623XXSP,2013-04-02 11:01:00,
2013-04-02 06:06:00,22.3,13.6,29.50,WNW,292,0.0,0.0,70,0.00,,,0.00,WUHU21623XXSP,2013-04-02 11:06:00,
2013-04-02 06:11:00,22.1,13.8,29.50,WNW,292,0.0,0.0,70,0.00,,,0.00,WUHU21623XXSP,2013-04-02 11:11:00,
2013-04-02 06:17:00,22.1,13.8,29.51,WNW,292,0.0,0.0,70,0.00,,,0.00,WUHU21623XXSP,2013-04-02 11:17:00,
2013-04-02 06:22:00,22.1,13.8,29.51,WNW,292,0.0,0.0,70,0.00,,,0.00,WUHU21623XXSP,2013-04-02 11:22:00,
2013-04-02 06:27:00,21.9,13.6,29.50,WNW,292,0.0,0.0,70,0.00,,,0.00,WUHU21623XXSP,2013-04-02 11:27:00,
2013-04-02 06:32:00,21.9,13.6,29.51,WNW,292,0.0,0.0,70,0.00,,,0.00,WUHU21623XXSP,2013-04-02 11:32:00,
2013-04-02 06:37:00,21.9,13.6,29.51,WNW,292,0.0,0.0,70,0.00,,,0.00,WUHU21623XXSP,2013-04-02 11:37:00,
2013-04-02 06:42:00,21.7,13.5,29.51,WNW,292,0.0,0.0,70,0.00,,,0.00,WUHU21623XXSP,2013-04-02 11:42:00,
2013-04-02 06:47:00,21.7,13.5,29.52,WNW,292,0.0,0.0,70,0.00,,,0.00,WUHU21623XXSP,2013-04-02 11:47:00,
2013-04-02 06:52:00,21.7,13.5,29.51,WNW,292,0.0,0.0,70,0.00,,,0.00,WUHU21623XXSP,2013-04-02 11:52:00,
2013-04-02 06:57:00,21.7,13.5,29.52,WNW,292,0.0,0.0,70,0.00,,,0.00,WUHU21623XXSP,2013-04-02 11:57:00,
2013-04-02 07:02:00,21.6,13.3,29.52,WNW,292,0.0,0.0,70,0.00,,,0.00,WUHU21623XXSP,2013-04-02 12:02:00,
2013-04-02 07:07:00,21.7,13.5,29.52,WNW,292,0.0,0.0,70,0.00,,,0.00,WUHU21623XXSP,2013-04-02 12:07:00,
2013-04-02 07:12:00,21.7,13.5,29.51,WNW,292,0.0,0.0,70,0.00,,,0.00,WUHU21623XXSP,2013-04-02 12:12:00,
2013-04-02 07:17:00,21.9,13.6,29.52,WNW,292,0.0,0.0,70,0.00,,,0.00,WUHU21623XXSP,2013-04-02 12:17:00,
2013-04-02 07:22:00,21.9,13.9,29.52,WNW,292,0.0,0.0,71,0.00,,,0.00,WUHU21623XXSP,2013-04-02 12:22:00,
2013-04-02 07:27:00,22.3,14.3,29.52,WNW,292,0.0,0.0,71,0.00,,,0.00,WUHU21623XXSP,2013-04-02 12:27:00,
2013-04-02 07:32:00,22.8,14.8,29.52,WNW,292,0.0,0.0,71,0.00,,,0.00,WUHU21623XXSP,2013-04-02 12:32:00,
2013-04-02 07:37:00,23.0,15.0,29.52,WNW,292,0.0,0.0,71,0.00,,,0.00,WUHU21623XXSP,2013-04-02 12:37:00,
2013-04-02 07:42:00,23.5,15.5,29.53,WNW,292,0.0,0.0,71,0.00,,,0.00,WUHU21623XXSP,2013-04-02 12:42:00,
2013-04-02 07:47:00,24.1,16.0,29.53,WNW,292,0.0,0.0,71,0.00,,,0.00,WUHU21623XXSP,2013-04-02 12:47:00,
2013-04-02 07:52:00,24.6,16.8,29.53,WNW,292,0.0,0.0,72,0.00,,,0.00,WUHU21623XXSP,2013-04-02 12:52:00,
2013-04-02 07:57:00,25.3,17.1,29.54,WNW,292,0.0,0.0,72,0.00,,,0.00,WUHU21623XXSP,2013-04-02 12:57:00,
2013-04-02 08:02:00,25.5,17.7,29.54,West,270,0.0,0.0,72,0.00,,,0.00,WUHU21623XXSP,2013-04-02 13:02:00,
2013-04-02 08:07:00,26.4,18.6,29.54,West,270,0.0,0.0,72,0.00,,,0.00,WUHU21623XXSP,2013-04-02 13:07:00,
2013-04-02 08:12:00,27.0,18.9,29.54,West,270,0.0,0.0,72,0.00,,,0.00,WUHU21623XXSP,2013-04-02 13:12:00,
2013-04-02 08:17:00,27.3,19.5,29.54,West,270,0.0,0.0,72,0.00,,,0.00,WUHU21623XXSP,2013-04-02 13:17:00,
2013-04-02 08:22:00,27.9,20.0,29.54,NNE,22,0.0,0.0,72,0.00,,,0.00,WUHU21623XXSP,2013-04-02 13:22:00,
2013-04-02 08:27:00,28.6,20.4,29.54,NNE,22,0.0,0.0,71,0.00,,,0.00,WUHU21623XXSP,2013-04-02 13:27:00,
2013-04-02 08:32:00,28.9,20.7,29.54,NNE,22,0.0,0.0,71,0.00,,,0.00,WUHU21623XXSP,2013-04-02 13:32:00,
2013-04-02 08:37:00,29.1,20.9,29.54,NE,45,3.6,3.6,71,0.00,,,0.00,WUHU21623XXSP,2013-04-02 13:37:00,
2013-04-02 08:42:00,29.7,21.1,29.54,WNW,292,0.0,3.6,70,0.00,,,0.00,WUHU21623XXSP,2013-04-02 13:42:00,
2013-04-02 08:47:00,30.0,21.4,29.55,NE,45,2.0,2.0,70,0.00,,,0.00,WUHU21623XXSP,2013-04-02 13:47:00,
2013-04-02 08:52:00,30.6,21.9,29.54,NE,45,2.9,2.9,70,0.00,,,0.00,WUHU21623XXSP,2013-04-02 13:52:00,
2013-04-02 08:57:00,30.9,21.7,29.54,NE,45,1.8,2.9,69,0.00,,,0.00,WUHU21623XXSP,2013-04-02 13:57:00,
2013-04-02 09:02:00,31.3,22.3,29.55,North,0,0.0,1.8,69,0.00,,,0.00,WUHU21623XXSP,2013-04-02 14:02:00,
2013-04-02 09:07:00,31.8,22.1,29.55,North,0,0.0,0.0,68,0.00,,,0.00,WUHU21623XXSP,2013-04-02 14:07:00,
2013-04-02 09:13:00,32.2,22.4,29.55,NW,315,0.0,0.0,67,0.00,,,0.00,WUHU21623XXSP,2013-04-02 14:13:00,
2013-04-02 09:18:00,32.5,22.4,29.56,WNW,292,0.0,0.0,66,0.00,,,0.00,WUHU21623XXSP,2013-04-02 14:18:00,
2013-04-02 09:23:00,32.9,22.7,29.56,NNW,337,0.0,0.0,66,0.00,,,0.00,WUHU21623XXSP,2013-04-02 14:23:00,
2013-04-02 09:28:00,33.4,22.5,29.56,North,0,0.0,0.0,64,0.00,,,0.00,WUHU21623XXSP,2013-04-02 14:28:00,
2013-04-02 09:33:00,33.8,22.7,29.56,North,0,0.0,0.0,63,0.00,,,0.00,WUHU21623XXSP,2013-04-02 14:33:00,
2013-04-02 09:38:00,34.3,23.0,29.56,NW,315,0.7,3.4,63,0.00,,,0.00,WUHU21623XXSP,2013-04-02 14:38:00,
2013-04-02 09:43:00,34.9,23.2,29.56,West,270,0.0,3.8,62,0.00,,,0.00,WUHU21623XXSP,2013-04-02 14:43:00,
2013-04-02 09:48:00,35.2,23.5,29.56,WSW,247,0.0,3.8,62,0.00,,,0.00,WUHU21623XXSP,2013-04-02 14:48:00,
2013-04-02 09:53:00,36.0,23.9,29.56,West,270,0.0,0.0,61,0.00,,,0.00,WUHU21623XXSP,2013-04-02 14:53:00,
2013-04-02 09:58:00,36.3,23.4,29.56,NNE,22,0.0,0.0,59,0.00,,,0.00,WUHU21623XXSP,2013-04-02 14:58:00,
2013-04-02 10:03:00,36.7,23.3,29.56,NNE,22,0.0,0.0,58,0.00,,,0.00,WUHU21623XXSP,2013-04-02 15:03:00,
2013-04-02 10:08:00,37.0,23.2,29.56,West,270,2.7,2.7,57,0.00,,,0.00,WUHU21623XXSP,2013-04-02 15:08:00,
2013-04-02 10:13:00,37.2,22.5,29.56,WNW,292,0.0,2.7,55,0.00,,,0.00,WUHU21623XXSP,2013-04-02 15:13:00,
2013-04-02 10:18:00,37.2,22.0,29.56,NNW,337,0.0,0.0,54,0.00,,,0.00,WUHU21623XXSP,2013-04-02 15:18:00,
2013-04-02 10:23:00,37.6,22.4,29.56,North,0,0.0,0.0,54,0.00,,,0.00,WUHU21623XXSP,2013-04-02 15:23:00,
2013-04-02 10:28:00,37.9,22.7,29.56,West,270,0.0,0.0,54,0.00,,,0.00,WUHU21623XXSP,2013-04-02 15:28:00,
2013-04-02 10:33:00,38.5,23.2,29.56,West,270,0.0,4.5,54,0.00,,,0.00,WUHU21623XXSP,2013-04-02 15:33:00,
2013-04-02 10:38:00,39.0,23.2,29.56,West,270,7.4,7.4,53,0.00,,,0.00,WUHU21623XXSP,2013-04-02 15:38:00,
2013-04-02 10:43:00,39.2,22.5,29.56,NW,315,0.0,7.4,51,0.00,,,0.00,WUHU21623XXSP,2013-04-02 15:43:00,
2013-04-02 10:48:00,39.4,22.7,29.56,NNW,337,0.0,7.4,51,0.00,,,0.00,WUHU21623XXSP,2013-04-02 15:48:00,
2013-04-02 10:53:00,39.7,22.9,29.56,North,0,0.0,0.0,51,0.00,,,0.00,WUHU21623XXSP,2013-04-02 15:53:00,
2013-04-02 10:58:00,39.9,22.2,29.56,West,270,2.2,2.7,49,0.00,,,0.00,WUHU21623XXSP,2013-04-02 15:58:00,
2013-04-02 11:03:00,39.9,21.7,29.56,NNW,337,0.0,2.7,48,0.00,,,0.00,WUHU21623XXSP,2013-04-02 16:03:00,
2013-04-02 11:08:00,40.3,21.0,29.56,WNW,292,5.8,5.8,46,0.00,,,0.00,WUHU21623XXSP,2013-04-02 16:08:00,
2013-04-02 11:13:00,40.3,21.0,29.56,West,270,0.0,5.8,46,0.00,,,0.00,WUHU21623XXSP,2013-04-02 16:13:00,
2013-04-02 11:19:00,40.3,21.0,29.56,West,270,0.0,4.5,45,0.00,,,0.00,WUHU21623XXSP,2013-04-02 16:19:00,
2013-04-02 11:24:00,40.8,21.3,29.56,West,270,0.0,0.0,46,0.00,,,0.00,WUHU21623XXSP,2013-04-02 16:24:00,
2013-04-02 11:29:00,41.2,20.8,29.55,WNW,292,5.1,5.1,44,0.00,,,0.00,WUHU21623XXSP,2013-04-02 16:29:00,
2013-04-02 11:34:00,41.2,20.8,29.55,West,270,1.1,5.1,44,0.00,,,0.00,WUHU21623XXSP,2013-04-02 16:34:00,
2013-04-02 11:39:00,41.5,21.5,29.55,WSW,247,0.0,5.1,44,0.00,,,0.00,WUHU21623XXSP,2013-04-02 16:39:00,
2013-04-02 11:44:00,41.7,20.7,29.55,NW,315,0.0,4.9,43,0.00,,,0.00,WUHU21623XXSP,2013-04-02 16:44:00,
2013-04-02 11:49:00,41.5,20.0,29.55,WNW,292,1.6,4.9,42,0.00,,,0.00,WUHU21623XXSP,2013-04-02 16:49:00,
2013-04-02 11:54:00,41.5,20.6,29.55,West,270,6.9,6.9,43,0.00,,,0.00,WUHU21623XXSP,2013-04-02 16:54:00,
2013-04-02 11:59:00,42.3,20.7,29.54,WNW,292,4.5,6.9,42,0.00,,,0.00,WUHU21623XXSP,2013-04-02 16:59:00,
2013-04-02 12:05:00,42.6,21.0,29.54,NE,45,0.0,4.5,42,0.00,,,0.00,WUHU21623XXSP,2013-04-02 17:05:00,
2013-04-02 12:10:00,43.0,20.3,29.54,NE,45,0.0,1.6,40,0.00,,,0.00,WUHU21623XXSP,2013-04-02 17:10:00,
2013-04-02 12:15:00,43.3,20.4,29.54,West,270,0.0,1.6,41,0.00,,,0.00,WUHU21623XXSP,2013-04-02 17:15:00,
2013-04-02 12:20:00,43.9,19.8,29.54,West,270,6.0,6.0,38,0.00,,,0.00,WUHU21623XXSP,2013-04-02 17:20:00,
2013-04-02 12:25:00,43.9,19.9,29.54,WNW,292,6.7,6.7,37,0.00,,,0.00,WUHU21623XXSP,2013-04-02 17:25:00,
2013-04-02 12:30:00,43.7,19.6,29.53,WSW,247,5.8,6.7,38,0.00,,,0.00,WUHU21623XXSP,2013-04-02 17:30:00,
2013-04-02 12:35:00,43.9,19.8,29.53,NE,45,0.0,6.5,38,0.00,,,0.00,WUHU21623XXSP,2013-04-02 17:35:00,
2013-04-02 12:40:00,44.1,20.1,29.53,NNW,337,0.0,6.5,37,0.00,,,0.00,WUHU21623XXSP,2013-04-02 17:40:00,
2013-04-02 12:45:00,44.1,20.6,29.53,West,270,4.7,4.7,39,0.00,,,0.00,WUHU21623XXSP,2013-04-02 17:45:00,
2013-04-02 12:50:00,44.6,21.1,29.53,SW,225,0.0,4.7,39,0.00,,,0.00,WUHU21623XXSP,2013-04-02 17:50:00,
2013-04-02 12:55:00,45.0,20.7,29.52,NW,315,4.3,6.9,38,0.00,,,0.00,WUHU21623XXSP,2013-04-02 17:55:00,
2013-04-02 13:00:00,45.0,20.7,29.52,West,270,4.3,6.9,38,0.00,,,0.00,WUHU21623XXSP,2013-04-02 18:00:00,
2013-04-02 13:05:00,45.1,20.9,29.52,WSW,247,0.0,7.6,38,0.00,,,0.00,WUHU21623XXSP,2013-04-02 18:05:00,
2013-04-02 13:11:00,45.5,19.9,29.52,NW,315,7.2,9.4,36,0.00,,,0.00,WUHU21623XXSP,2013-04-02 18:11:00,
2013-04-02 13:16:00,45.5,19.9,29.51,SW,225,12.1,12.1,36,0.00,,,0.00,WUHU21623XXSP,2013-04-02 18:16:00,
2013-04-02 13:21:00,46.0,20.4,29.51,WNW,292,0.0,12.1,36,0.00,,,0.00,WUHU21623XXSP,2013-04-02 18:21:00,
2013-04-02 13:26:00,46.0,19.7,29.51,WNW,292,5.1,5.1,35,0.00,,,0.00,WUHU21623XXSP,2013-04-02 18:26:00,
2013-04-02 13:32:00,46.0,19.7,29.51,WNW,292,1.8,9.2,35,0.00,,,0.00,WUHU21623XXSP,2013-04-02 18:32:00,
2013-04-02 13:37:00,45.7,19.4,29.51,West,270,0.0,9.2,35,0.00,,,0.00,WUHU21623XXSP,2013-04-02 18:37:00,
2013-04-02 13:42:00,46.0,19.7,29.51,North,0,0.0,7.2,35,0.00,,,0.00,WUHU21623XXSP,2013-04-02 18:42:00,
2013-04-02 13:47:00,46.2,19.9,29.51,West,270,4.3,7.2,35,0.00,,,0.00,WUHU21623XXSP,2013-04-02 18:47:00,
2013-04-02 13:52:00,46.2,19.2,29.51,West,270,4.5,4.5,34,0.00,,,0.00,WUHU21623XXSP,2013-04-02 18:52:00,
2013-04-02 13:57:00,46.2,19.2,29.51,WNW,292,1.6,4.5,34,0.00,,,0.00,WUHU21623XXSP,2013-04-02 18:57:00,
2013-04-02 14:02:00,46.4,19.4,29.51,WNW,292,0.0,4.5,34,0.00,,,0.00,WUHU21623XXSP,2013-04-02 19:02:00,
2013-04-02 14:07:00,46.4,19.2,29.50,NW,315,3.4,3.4,34,0.00,,,0.00,WUHU21623XXSP,2013-04-02 19:07:00,
2013-04-02 14:12:00,46.8,19.7,29.51,North,0,0.0,4.5,34,0.00,,,0.00,WUHU21623XXSP,2013-04-02 19:12:00,
2013-04-02 14:17:00,46.8,19.7,29.50,WSW,247,7.8,7.8,34,0.00,,,0.00,WUHU21623XXSP,2013-04-02 19:17:00,
2013-04-02 14:22:00,46.9,19.9,29.50,ESE,112,0.0,7.8,34,0.00,,,0.00,WUHU21623XXSP,2013-04-02 19:22:00,
2013-04-02 14:27:00,46.9,19.9,29.50,NNW,337,0.0,9.4,34,0.00,,,0.00,WUHU21623XXSP,2013-04-02 19:27:00,
2013-04-02 14:32:00,46.9,19.9,29.50,West,270,3.6,9.4,34,0.00,,,0.00,WUHU21623XXSP,2013-04-02 19:32:00,
2013-04-02 14:37:00,46.9,19.9,29.50,West,270,4.7,6.5,34,0.00,,,0.00,WUHU21623XXSP,2013-04-02 19:37:00,
2013-04-02 14:42:00,46.9,19.9,29.50,NE,45,3.1,6.5,34,0.00,,,0.00,WUHU21623XXSP,2013-04-02 19:42:00,
2013-04-02 14:47:00,46.9,19.9,29.50,West,270,6.7,6.7,34,0.00,,,0.00,WUHU21623XXSP,2013-04-02 19:47:00,
2013-04-02 14:52:00,47.1,20.0,29.50,NW,315,8.3,8.3,34,0.00,,,0.00,WUHU21623XXSP,2013-04-02 19:52:00,
2013-04-02 14:57:00,46.9,19.9,29.50,West,270,6.3,8.3,34,0.00,,,0.00,WUHU21623XXSP,2013-04-02 19:57:00,
2013-04-02 15:02:00,46.9,19.9,29.49,West,270,4.3,6.3,34,0.00,,,0.00,WUHU21623XXSP,2013-04-02 20:02:00,
2013-04-02 15:07:00,47.1,20.7,29.49,West,270,8.5,8.5,35,0.00,,,0.00,WUHU21623XXSP,2013-04-02 20:07:00,
2013-04-02 15:13:00,47.1,20.7,29.49,NW,315,7.6,8.5,35,0.00,,,0.00,WUHU21623XXSP,2013-04-02 20:13:00,
2013-04-02 15:18:00,47.3,21.5,29.49,West,270,5.1,7.6,36,0.00,,,0.00,WUHU21623XXSP,2013-04-02 20:18:00,
2013-04-02 15:23:00,47.8,21.8,29.49,North,0,0.7,5.1,36,0.00,,,0.00,WUHU21623XXSP,2013-04-02 20:23:00,
2013-04-02 15:28:00,47.8,22.0,29.49,NNW,337,5.6,8.3,36,0.00,,,0.00,WUHU21623XXSP,2013-04-02 20:28:00,
2013-04-02 15:33:00,47.8,22.0,29.49,West,270,4.5,8.3,36,0.00,,,0.00,WUHU21623XXSP,2013-04-02 20:33:00,
2013-04-02 15:38:00,47.7,21.8,29.49,NE,45,0.7,9.2,36,0.00,,,0.00,WUHU21623XXSP,2013-04-02 20:38:00,
2013-04-02 15:43:00,47.5,21.7,29.49,NE,45,2.2,9.2,36,0.00,,,0.00,WUHU21623XXSP,2013-04-02 20:43:00,
2013-04-02 15:48:00,47.5,21.7,29.49,NNW,337,0.0,2.7,36,0.00,,,0.00,WUHU21623XXSP,2013-04-02 20:48:00,
2013-04-02 15:53:00,47.3,21.5,29.49,NNW,337,3.8,9.6,36,0.00,,,0.00,WUHU21623XXSP,2013-04-02 20:53:00,
2013-04-02 15:58:00,47.3,21.5,29.49,NNE,22,3.6,9.6,36,0.00,,,0.00,WUHU21623XXSP,2013-04-02 20:58:00,
2013-04-02 16:03:00,47.5,22.3,29.49,WNW,292,0.7,6.9,37,0.00,,,0.00,WUHU21623XXSP,2013-04-02 21:03:00,
2013-04-02 16:08:00,47.5,22.3,29.49,North,0,1.6,6.9,37,0.00,,,0.00,WUHU21623XXSP,2013-04-02 21:08:00,
2013-04-02 16:13:00,47.8,22.7,29.49,WNW,292,0.0,8.9,37,0.00,,,0.00,WUHU21623XXSP,2013-04-02 21:13:00,
2013-04-02 16:18:00,48.0,22.8,29.49,North,0,7.6,8.9,37,0.00,,,0.00,WUHU21623XXSP,2013-04-02 21:18:00,
2013-04-02 16:23:00,47.8,22.7,29.49,NNW,337,0.0,10.1,37,0.00,,,0.00,WUHU21623XXSP,2013-04-02 21:23:00,
2013-04-02 16:28:00,47.7,22.5,29.49,WNW,292,1.3,10.1,37,0.00,,,0.00,WUHU21623XXSP,2013-04-02 21:28:00,
2013-04-02 16:33:00,47.7,22.5,29.49,NW,315,1.1,5.4,37,0.00,,,0.00,WUHU21623XXSP,2013-04-02 21:33:00,
2013-04-02 16:38:00,47.7,23.2,29.49,NNW,337,0.0,6.5,38,0.00,,,0.00,WUHU21623XXSP,2013-04-02 21:38:00,
2013-04-02 16:43:00,47.5,23.0,29.49,NNW,337,2.2,6.5,38,0.00,,,0.00,WUHU21623XXSP,2013-04-02 21:43:00,
2013-04-02 16:48:00,47.7,23.2,29.49,North,0,6.5,6.5,38,0.00,,,0.00,WUHU21623XXSP,2013-04-02 21:48:00,
2013-04-02 16:54:00,48.0,23.5,29.49,WNW,292,0.0,6.5,38,0.00,,,0.00,WUHU21623XXSP,2013-04-02 21:54:00,
2013-04-02 16:59:00,47.8,23.3,29.49,WNW,292,4.5,4.5,38,0.00,,,0.00,WUHU21623XXSP,2013-04-02 21:59:00,
2013-04-02 17:04:00,47.5,23.0,29.49,NNW,337,0.0,4.5,38,0.00,,,0.00,WUHU21623XXSP,2013-04-02 22:04:00,
2013-04-02 17:09:00,47.1,22.0,29.49,NNW,337,3.1,9.4,37,0.00,,,0.00,WUHU21623XXSP,2013-04-02 22:09:00,
2013-04-02 17:14:00,47.1,22.7,29.49,North,0,6.9,9.4,38,0.00,,,0.00,WUHU21623XXSP,2013-04-02 22:14:00,
2013-04-02 17:19:00,46.9,22.5,29.49,ENE,67,0.0,8.3,38,0.00,,,0.00,WUHU21623XXSP,2013-04-02 22:19:00,
2013-04-02 17:24:00,46.9,23.2,29.49,West,270,1.1,2.5,39,0.00,,,0.00,WUHU21623XXSP,2013-04-02 22:24:00,
2013-04-02 17:29:00,46.6,22.9,29.49,North,0,0.0,1.1,39,0.00,,,0.00,WUHU21623XXSP,2013-04-02 22:29:00,
2013-04-02 17:34:00,46.6,22.9,29.49,NNW,337,0.0,0.0,39,0.00,,,0.00,WUHU21623XXSP,2013-04-02 22:34:00,
2013-04-02 17:39:00,46.2,22.5,29.49,WNW,292,0.0,6.7,39,0.00,,,0.00,WUHU21623XXSP,2013-04-02 22:39:00,
2013-04-02 17:44:00,46.0,22.4,29.49,NNE,22,6.9,6.9,39,0.00,,,0.00,WUHU21623XXSP,2013-04-02 22:44:00,
2013-04-02 17:49:00,46.0,22.4,29.49,NW,315,2.7,6.9,39,0.00,,,0.00,WUHU21623XXSP,2013-04-02 22:49:00,
2013-04-02 17:54:00,45.7,22.0,29.49,NNE,22,1.6,6.9,39,0.00,,,0.00,WUHU21623XXSP,2013-04-02 22:54:00,
2013-04-02 18:00:00,45.5,21.9,29.49,NNE,22,0.0,6.9,39,0.00,,,0.00,WUHU21623XXSP,2013-04-02 23:00:00,
2013-04-02 18:05:00,45.1,21.6,29.49,North,0,6.3,6.3,39,0.00,,,0.00,WUHU21623XXSP,2013-04-02 23:05:00,
2013-04-02 18:09:00,45.0,21.4,29.49,NW,315,0.0,6.3,39,0.00,,,0.00,WUHU21623XXSP,2013-04-02 23:09:00,
2013-04-02 18:15:00,44.4,21.1,29.49,NE,45,9.6,9.6,39,0.00,,,0.00,WUHU21623XXSP,2013-04-02 23:15:00,
2013-04-02 18:20:00,44.4,21.6,29.49,NNE,22,0.7,9.6,40,0.00,,,0.00,WUHU21623XXSP,2013-04-02 23:20:00,
2013-04-02 18:25:00,43.5,20.8,29.50,North,0,6.5,10.1,40,0.00,,,0.00,WUHU21623XXSP,2013-04-02 23:25:00,
2013-04-02 18:30:00,43.3,21.1,29.50,NNW,337,4.7,10.1,41,0.00,,,0.00,WUHU21623XXSP,2013-04-02 23:30:00,
2013-04-02 18:35:00,43.2,21.0,29.50,NNE,22,3.4,6.0,41,0.00,,,0.00,WUHU21623XXSP,2013-04-02 23:35:00,
2013-04-02 18:40:00,42.6,20.5,29.50,NE,45,0.0,6.0,41,0.00,,,0.00,WUHU21623XXSP,2013-04-02 23:40:00,
2013-04-02 18:45:00,42.6,20.5,29.50,NNW,337,0.0,6.5,41,0.00,,,0.00,WUHU21623XXSP,2013-04-02 23:45:00,
2013-04-02 18:50:00,42.1,20.0,29.51,NE,45,0.0,6.5,41,0.00,,,0.00,WUHU21623XXSP,2013-04-02 23:50:00,
2013-04-02 18:55:00,43.2,21.0,29.50,NNW,337,6.5,6.5,41,0.00,,,0.00,WUHU21623XXSP,2013-04-02 23:55:00,
2013-04-02 19:00:00,44.2,21.4,29.50,NE,45,1.1,6.5,40,0.00,,,0.00,WUHU21623XXSP,2013-04-03 00:00:00,
2013-04-02 19:05:00,44.2,21.4,29.50,NNE,22,0.0,4.5,40,0.00,,,0.00,WUHU21623XXSP,2013-04-03 00:05:00,
2013-04-02 19:10:00,43.7,20.9,29.51,North,0,0.0,0.0,40,0.00,,,0.00,WUHU21623XXSP,2013-04-03 00:10:00,
2013-04-02 19:15:00,43.2,20.4,29.50,NNW,337,0.0,0.0,40,0.00,,,0.00,WUHU21623XXSP,2013-04-03 00:15:00,
2013-04-02 19:20:00,41.7,19.7,29.51,North,0,3.1,3.1,41,0.00,,,0.00,WUHU21623XXSP,2013-04-03 00:20:00,
2013-04-02 19:25:00,41.2,19.7,29.51,NNE,22,0.0,3.1,42,0.00,,,0.00,WUHU21623XXSP,2013-04-03 00:25:00,
2013-04-02 19:30:00,40.6,19.2,29.51,North,0,1.1,1.1,42,0.00,,,0.00,WUHU21623XXSP,2013-04-03 00:30:00,
2013-04-02 19:35:00,39.9,19.1,29.51,NE,45,1.8,1.8,43,0.00,,,0.00,WUHU21623XXSP,2013-04-03 00:35:00,
2013-04-02 19:40:00,39.4,18.9,29.51,NNE,22,0.0,1.8,43,0.00,,,0.00,WUHU21623XXSP,2013-04-03 00:40:00,
2013-04-02 19:45:00,39.0,18.8,29.51,NE,45,0.0,0.0,44,0.00,,,0.00,WUHU21623XXSP,2013-04-03 00:45:00,
2013-04-02 19:50:00,38.8,18.6,29.51,NNE,22,0.0,1.6,44,0.00,,,0.00,WUHU21623XXSP,2013-04-03 00:50:00,
2013-04-02 19:55:00,38.5,18.3,29.52,NE,45,0.0,1.6,44,0.00,,,0.00,WUHU21623XXSP,2013-04-03 00:55:00,
2013-04-02 20:00:00,37.9,18.4,29.52,North,0,0.0,0.0,45,0.00,,,0.00,WUHU21623XXSP,2013-04-03 01:00:00,
2013-04-02 20:05:00,37.8,18.2,29.52,North,0,0.0,0.0,45,0.00,,,0.00,WUHU21623XXSP,2013-04-03 01:05:00,
2013-04-02 20:10:00,37.6,18.0,29.53,NNE,22,0.0,0.0,45,0.00,,,0.00,WUHU21623XXSP,2013-04-03 01:10:00,
2013-04-02 20:15:00,37.2,18.2,29.53,NNE,22,0.0,0.0,46,0.00,,,0.00,WUHU21623XXSP,2013-04-03 01:15:00,
2013-04-02 20:21:00,37.0,18.1,29.53,NNE,22,0.0,0.0,46,0.00,,,0.00,WUHU21623XXSP,2013-04-03 01:21:00,
2013-04-02 20:26:00,37.0,18.1,29.53,NNE,22,0.0,0.0,46,0.00,,,0.00,WUHU21623XXSP,2013-04-03 01:26:00,
2013-04-02 20:31:00,36.7,18.3,29.53,NNW,337,0.0,0.0,47,0.00,,,0.00,WUHU21623XXSP,2013-04-03 01:31:00,
2013-04-02 20:36:00,36.3,17.9,29.53,North,0,0.0,0.0,47,0.00,,,0.00,WUHU21623XXSP,2013-04-03 01:36:00,
2013-04-02 20:41:00,36.1,17.9,29.53,North,0,0.0,0.0,48,0.00,,,0.00,WUHU21623XXSP,2013-04-03 01:41:00,
2013-04-02 20:46:00,36.0,18.1,29.54,North,0,0.0,0.0,48,0.00,,,0.00,WUHU21623XXSP,2013-04-03 01:46:00,
2013-04-02 20:51:00,35.8,18.0,29.54,North,0,0.0,0.0,48,0.00,,,0.00,WUHU21623XXSP,2013-04-03 01:51:00,
2013-04-02 20:56:00,35.4,17.6,29.54,North,0,0.0,0.0,48,0.00,,,0.00,WUHU21623XXSP,2013-04-03 01:56:00,
2013-04-02 21:02:00,35.4,17.6,29.54,North,0,0.0,0.0,48,0.00,,,0.00,WUHU21623XXSP,2013-04-03 02:02:00,
2013-04-02 21:07:00,35.2,18.0,29.54,NNE,22,0.0,0.0,49,0.00,,,0.00,WUHU21623XXSP,2013-04-03 02:07:00,
2013-04-02 21:12:00,35.2,18.0,29.54,NE,45,0.0,0.0,49,0.00,,,0.00,WUHU21623XXSP,2013-04-03 02:12:00,
2013-04-02 21:18:00,34.9,17.6,29.54,NNE,22,0.0,0.0,49,0.00,,,0.00,WUHU21623XXSP,2013-04-03 02:18:00,
2013-04-02 21:23:00,34.7,17.4,29.55,NNE,22,0.0,0.0,49,0.00,,,0.00,WUHU21623XXSP,2013-04-03 02:23:00,
2013-04-02 21:28:00,34.5,17.8,29.55,NE,45,0.0,0.0,50,0.00,,,0.00,WUHU21623XXSP,2013-04-03 02:28:00,
2013-04-02 21:33:00,34.3,17.6,29.55,NNE,22,0.0,0.0,50,0.00,,,0.00,WUHU21623XXSP,2013-04-03 02:33:00,
2013-04-02 21:38:00,34.2,17.9,29.55,NE,45,0.0,0.0,51,0.00,,,0.00,WUHU21623XXSP,2013-04-03 02:38:00,
2013-04-02 21:43:00,34.0,17.7,29.56,NE,45,0.0,0.0,51,0.00,,,0.00,WUHU21623XXSP,2013-04-03 02:43:00,
2013-04-02 21:48:00,33.8,17.9,29.55,NNE,22,0.0,0.0,52,0.00,,,0.00,WUHU21623XXSP,2013-04-03 02:48:00,
2013-04-02 21:53:00,33.6,17.8,29.56,NE,45,0.0,0.0,52,0.00,,,0.00,WUHU21623XXSP,2013-04-03 02:53:00,
2013-04-02 21:58:00,33.6,17.8,29.56,NE,45,0.0,0.0,52,0.00,,,0.00,WUHU21623XXSP,2013-04-03 02:58:00,
2013-04-02 22:03:00,33.4,17.6,29.56,NNE,22,0.0,0.0,52,0.00,,,0.00,WUHU21623XXSP,2013-04-03 03:03:00,
2013-04-02 22:08:00,33.1,17.7,29.56,NNE,22,0.0,0.0,53,0.00,,,0.00,WUHU21623XXSP,2013-04-03 03:08:00,
2013-04-02 22:13:00,32.9,17.5,29.56,NE,45,0.0,0.0,53,0.00,,,0.00,WUHU21623XXSP,2013-04-03 03:13:00,
2013-04-02 22:18:00,32.7,17.4,29.56,NNE,22,0.0,0.0,53,0.00,,,0.00,WUHU21623XXSP,2013-04-03 03:18:00,
2013-04-02 22:23:00,32.7,17.4,29.56,NNE,22,0.0,0.0,53,0.00,,,0.00,WUHU21623XXSP,2013-04-03 03:23:00,
2013-04-02 22:28:00,32.5,17.2,29.56,NNE,22,0.0,0.0,53,0.00,,,0.00,WUHU21623XXSP,2013-04-03 03:28:00,
2013-04-02 22:33:00,32.4,17.1,29.55,NNE,22,0.0,0.0,53,0.00,,,0.00,WUHU21623XXSP,2013-04-03 03:33:00,
2013-04-02 22:38:00,32.2,17.3,29.56,NNE,22,0.0,0.0,54,0.00,,,0.00,WUHU21623XXSP,2013-04-03 03:38:00,
2013-04-02 22:43:00,32.2,17.3,29.56,NNE,22,0.0,0.0,54,0.00,,,0.00,WUHU21623XXSP,2013-04-03 03:43:00,
2013-04-02 22:57:00,31.8,17.5,29.56,NE,45,0.0,0.0,55,0.00,,,0.00,WUHU21623XXSP,2013-04-03 03:57:00,
2013-04-02 23:57:00,30.0,16.6,29.55,NNE,23,0.0,0.0,57,0.00,,,0.00,WUHU21623XXSP,2013-04-03 04:57:00,